Weather Data

Pearl Creek Farm: 8878 N Farm Road 75, Walnut Grove MO 65770

<== Previous Day (Friday 04 Jan 2008) | Next Day (Sunday 06 Jan 2008) ==>

Summary Precipitation Data For Saturday 05 January 2008

ElementValueUnits
Precipitation0"
Notes(none)
SourceSpringfield-Branson National Airport (SGF)

Summary Temperature Data For Saturday 05 January 2008

ElementValueUnits
High Temperature67 oF
Low Temperature47 oF
Average Temperature57 oF
High Humidity84 %
Low Humidity47 %
Average Humidity68 %
SourceSpringfield-Branson National Airport (SGF)

Detail Temperature Data For Saturday 05 January 2008

Date / TimeTemp (F)RH (%)Dew Pt (F)Report Date / TimeSource
2008-01-05 00:52:00 47 71 38.0 2017-12-29 19:14:24.89625 Springfield-Branson National Airport (SGF)
2008-01-05 01:52:00 52 72 43.0 2017-12-29 19:14:24.89625 Springfield-Branson National Airport (SGF)
2008-01-05 02:52:00 52 72 43.0 2017-12-29 19:14:24.89625 Springfield-Branson National Airport (SGF)
2008-01-05 03:52:00 51 74 43.0 2017-12-29 19:14:24.89625 Springfield-Branson National Airport (SGF)
2008-01-05 04:52:00 51 74 43.0 2017-12-29 19:14:24.89625 Springfield-Branson National Airport (SGF)
2008-01-05 05:52:00 51 77 44.0 2017-12-29 19:14:24.89625 Springfield-Branson National Airport (SGF)
2008-01-05 06:52:00 52 75 44.0 2017-12-29 19:14:24.89625 Springfield-Branson National Airport (SGF)
2008-01-05 07:52:00 53 74 45.0 2017-12-29 19:14:24.89625 Springfield-Branson National Airport (SGF)
2008-01-05 08:52:00 55 74 47.0 2017-12-29 19:14:24.89625 Springfield-Branson National Airport (SGF)
2008-01-05 09:52:00 57 69 47.0 2017-12-29 19:14:24.89625 Springfield-Branson National Airport (SGF)
2008-01-05 10:52:00 60 62 47.0 2017-12-29 19:14:24.89625 Springfield-Branson National Airport (SGF)
2008-01-05 11:52:00 63 56 47.0 2017-12-29 19:14:24.89625 Springfield-Branson National Airport (SGF)
2008-01-05 12:52:00 65 52 47.0 2017-12-29 19:14:24.89625 Springfield-Branson National Airport (SGF)
2008-01-05 13:52:00 66 49 46.0 2017-12-29 19:14:24.89625 Springfield-Branson National Airport (SGF)
2008-01-05 14:52:00 67 47 46.0 2017-12-29 19:14:24.89625 Springfield-Branson National Airport (SGF)
2008-01-05 15:52:00 66 49 46.0 2017-12-29 19:14:24.89625 Springfield-Branson National Airport (SGF)
2008-01-05 16:52:00 62 56 46.0 2017-12-29 19:14:24.89625 Springfield-Branson National Airport (SGF)
2008-01-05 17:52:00 61 60 47.0 2017-12-29 19:14:24.89625 Springfield-Branson National Airport (SGF)
2008-01-05 18:52:00 59 67 48.0 2017-12-29 19:14:24.89625 Springfield-Branson National Airport (SGF)
2008-01-05 19:52:00 57 72 48.0 2017-12-29 19:14:24.89625 Springfield-Branson National Airport (SGF)
2008-01-05 20:52:00 56 77 49.0 2017-12-29 19:14:24.89625 Springfield-Branson National Airport (SGF)
2008-01-05 21:52:00 56 81 50.0 2017-12-29 19:14:24.89625 Springfield-Branson National Airport (SGF)
2008-01-05 22:52:00 56 81 50.0 2017-12-29 19:14:24.89625 Springfield-Branson National Airport (SGF)
2008-01-05 23:52:00 56 84 51.0 2017-12-29 19:14:24.89625 Springfield-Branson National Airport (SGF)

A total of 24 rows are displayed.